Time;durP1;ratioP1;P1;durP2;ratioP2;P2;SDS_P1;SDS_P2;PMS_P1;PMS_P2;Temp;Humidity;BMP_temperature;BMP_pressure;BME280_temperature;BME280_humidity;BME280_pressure;Samples;Min_cycle;Max_cycle;Signal;HPM_P1;HPM_P2
2023/01/19 00:00:55;;;;;;;2.60;2.30;;;;;;;3.24;100.00;97873.03;6198891;23;20214;-81
2023/01/19 00:03:22;;;;;;;2.20;2.00;;;;;;;3.23;100.00;97880.16;6198240;23;20202;-81
2023/01/19 00:05:48;;;;;;;2.80;2.50;;;;;;;3.21;100.00;97882.25;6197521;23;20226;-81
2023/01/19 00:08:16;;;;;;;2.83;2.23;;;;;;;3.12;100.00;97898.59;6198117;23;20216;-81
2023/01/19 00:10:45;;;;;;;2.93;2.73;;;;;;;3.22;100.00;97902.38;6197272;23;20336;-81
2023/01/19 00:13:13;;;;;;;3.13;2.77;;;;;;;3.15;100.00;97908.75;6199419;23;20270;-81
2023/01/19 00:15:40;;;;;;;2.90;2.70;;;;;;;3.10;100.00;97904.91;6172764;23;20214;-82
2023/01/19 00:18:07;;;;;;;2.60;2.40;;;;;;;3.24;100.00;97900.31;6197680;23;20314;-81
2023/01/19 00:20:36;;;;;;;3.17;2.87;;;;;;;3.10;100.00;97891.66;6198823;23;20206;-79
2023/01/19 00:23:04;;;;;;;3.37;3.07;;;;;;;3.05;100.00;97895.97;6198840;23;20220;-79
2023/01/19 00:25:30;;;;;;;3.80;3.40;;;;;;;3.04;100.00;97894.34;6197183;23;20209;-79
2023/01/19 00:27:58;;;;;;;3.50;3.20;;;;;;;3.01;100.00;97892.97;6199474;23;20210;-80
2023/01/19 00:30:27;;;;;;;3.87;3.47;;;;;;;2.98;100.00;97890.75;6171666;23;20198;-78
2023/01/19 00:32:54;;;;;;;4.07;3.50;;;;;;;2.87;100.00;97887.94;6173480;23;20202;-79
2023/01/19 00:35:21;;;;;;;3.60;3.30;;;;;;;2.81;100.00;97892.25;6199887;23;20233;-78
2023/01/19 00:37:48;;;;;;;3.80;3.50;;;;;;;2.93;100.00;97897.69;6201227;23;20214;-81
2023/01/19 00:40:16;;;;;;;3.67;3.37;;;;;;;2.73;100.00;97889.88;6199968;23;20220;-81
2023/01/19 00:42:43;;;;;;;3.93;3.57;;;;;;;2.79;100.00;97899.59;6197659;23;20202;-81
2023/01/19 00:45:15;;;;;;;4.10;3.73;;;;;;;2.74;100.00;97906.53;6170621;23;20237;-79
2023/01/19 00:47:42;;;;;;;4.10;3.80;;;;;;;2.77;100.00;97909.56;6177938;23;20217;-79
2023/01/19 00:50:15;;;;;;;4.77;4.27;;;;;;;2.63;100.00;97922.03;6205406;23;20221;-80
2023/01/19 00:52:44;;;;;;;4.47;4.03;;;;;;;2.64;100.00;97936.91;6183775;23;20279;-80
2023/01/19 00:55:13;;;;;;;4.27;3.90;;;;;;;2.66;100.00;97929.56;6181762;23;20210;-80
2023/01/19 00:57:43;;;;;;;4.77;4.30;;;;;;;2.54;100.00;97923.31;6207815;23;20210;-80
2023/01/19 01:00:12;;;;;;;4.53;4.13;;;;;;;2.64;100.00;97921.03;6183257;23;20210;-79
2023/01/19 01:02:42;;;;;;;4.90;4.40;;;;;;;2.61;100.00;97920.66;6184283;23;20218;-82
2023/01/19 01:05:10;;;;;;;4.77;4.37;;;;;;;2.39;100.00;97927.22;6182243;23;20210;-81
2023/01/19 01:07:40;;;;;;;4.70;4.20;;;;;;;2.50;100.00;97923.94;6201430;23;20229;-82
2023/01/19 01:10:08;;;;;;;4.57;4.17;;;;;;;2.65;100.00;97935.06;6178103;23;20186;-78
2023/01/19 01:12:36;;;;;;;5.53;4.70;;;;;;;2.58;100.00;97936.91;6150895;23;20233;-82
2023/01/19 01:15:08;;;;;;;4.90;4.40;;;;;;;2.54;100.00;97941.81;6175782;23;20261;-82
2023/01/19 01:17:35;;;;;;;5.27;4.77;;;;;;;2.53;100.00;97934.91;6174756;23;20224;-81
2023/01/19 01:20:06;;;;;;;5.27;4.77;;;;;;;2.52;100.00;97941.19;6199992;23;20183;-81
2023/01/19 01:22:33;;;;;;;5.13;4.67;;;;;;;2.44;100.00;97933.50;6199757;23;20206;-81
2023/01/19 01:25:00;;;;;;;5.43;4.93;;;;;;;2.44;100.00;97937.97;6175403;23;20237;-81
2023/01/19 01:27:27;;;;;;;5.47;4.97;;;;;;;2.41;100.00;97930.47;6174523;23;20213;-81
2023/01/19 01:29:54;;;;;;;6.70;5.00;;;;;;;2.31;100.00;97936.19;6197470;23;20229;-81
2023/01/19 01:32:21;;;;;;;5.67;5.17;;;;;;;2.36;100.00;97922.38;6198960;23;20206;-79
2023/01/19 01:34:47;;;;;;;5.40;4.90;;;;;;;2.30;100.00;97933.75;6198980;23;20261;-79
2023/01/19 01:37:14;;;;;;;5.30;4.80;;;;;;;2.38;100.00;97952.06;6198607;23;20214;-79
2023/01/19 01:39:41;;;;;;;5.60;5.10;;;;;;;2.39;100.00;97959.75;6199017;23;20236;-79
2023/01/19 01:42:16;;;;;;;5.17;4.67;;;;;;;2.33;100.00;97962.44;6198345;23;20265;-79
2023/01/19 01:44:49;;;;;;;5.33;4.83;;;;;;;2.28;100.00;97947.19;6175771;23;20237;-79
2023/01/19 01:56:47;;;;;;;5.63;5.13;;;;;;;2.31;100.00;97956.53;6196896;23;20222;-79
2023/01/19 01:59:28;;;;;;;5.73;5.20;;;;;;;2.28;100.00;97960.41;6162394;23;20556;-79
2023/01/19 02:04:47;;;;;;;6.50;5.40;;;;;;;2.51;100.00;97963.38;6183207;23;20681;-79
2023/01/19 02:15:33;;;;;;;6.00;5.40;;;;;;;2.44;100.00;97961.78;6185557;23;20225;-79
2023/01/19 02:18:00;;;;;;;5.87;5.27;;;;;;;2.38;100.00;97957.34;6185799;23;20264;-78
2023/01/19 02:20:29;;;;;;;6.17;5.57;;;;;;;2.30;100.00;97960.19;6185259;23;20257;-78
2023/01/19 02:23:00;;;;;;;5.83;5.30;;;;;;;2.44;100.00;97967.88;6184743;23;20217;-79
2023/01/19 02:25:28;;;;;;;6.07;5.37;;;;;;;2.28;100.00;97965.69;6185218;23;20186;-79
2023/01/19 02:27:54;;;;;;;5.43;4.93;;;;;;;2.38;100.00;97967.91;6184203;23;20217;-79
2023/01/19 02:30:21;;;;;;;5.90;5.27;;;;;;;2.44;100.00;97975.81;6172927;23;20657;-78
2023/01/19 02:32:48;;;;;;;6.03;5.50;;;;;;;2.44;100.00;97983.72;6183964;23;20225;-78
2023/01/19 02:35:15;;;;;;;5.77;5.17;;;;;;;2.50;100.00;97976.81;6184711;23;20179;-79
2023/01/19 02:37:42;;;;;;;5.77;5.03;;;;;;;2.50;100.00;97976.81;6185201;23;20663;-79
2023/01/19 02:40:12;;;;;;;5.87;5.03;;;;;;;2.51;100.00;97975.78;6189213;23;20202;-80
2023/01/19 02:42:43;;;;;;;5.90;5.30;;;;;;;2.51;100.00;97968.69;6202524;23;20218;-81
2023/01/19 02:45:11;;;;;;;5.37;4.87;;;;;;;2.65;100.00;97980.03;6176628;23;20600;-81
2023/01/19 02:47:39;;;;;;;5.43;4.93;;;;;;;2.59;100.00;97979.00;6199561;23;20234;-80
2023/01/19 02:50:31;;;;;;;5.90;5.30;;;;;;;2.51;100.00;97973.16;6198596;23;20210;-80
2023/01/19 02:53:16;;;;;;;5.67;5.13;;;;;;;2.41;100.00;97975.41;6173357;23;20216;-81
2023/01/19 02:55:53;;;;;;;6.13;5.53;;;;;;;2.39;100.00;97977.44;6210665;23;20279;-81
2023/01/19 02:58:52;;;;;;;5.17;4.67;;;;;;;2.52;100.00;97974.78;6211872;23;20206;-81
2023/01/19 03:02:00;;;;;;;6.17;5.57;;;;;;;2.46;100.00;97978.25;6209893;23;20214;-81
2023/01/19 03:05:01;;;;;;;5.90;5.30;;;;;;;2.36;100.00;97983.97;6186154;23;20242;-81
2023/01/19 03:07:54;;;;;;;6.10;5.50;;;;;;;2.32;100.00;97988.03;6211372;23;20190;-81
2023/01/19 03:11:00;;;;;;;5.27;4.87;;;;;;;2.22;100.00;97987.66;6187374;23;20210;-81
2023/01/19 03:13:44;;;;;;;5.60;5.00;;;;;;;2.16;100.00;97986.63;6164284;23;20214;-82
2023/01/19 03:16:44;;;;;;;5.97;5.33;;;;;;;2.19;100.00;98012.63;6191954;23;20186;-82
2023/01/19 03:19:31;;;;;;;6.40;5.80;;;;;;;2.02;100.00;98014.09;6182269;23;20166;-82
2023/01/19 03:22:20;;;;;;;5.80;5.30;;;;;;;2.14;100.00;98004.53;6212668;23;20193;-82
2023/01/19 03:24:57;;;;;;;5.67;5.17;;;;;;;2.29;100.00;98014.06;6190246;23;20196;-83
2023/01/19 03:28:06;;;;;;;5.70;5.00;;;;;;;2.18;100.00;98010.22;6181325;23;20245;-81
2023/01/19 03:30:38;;;;;;;5.93;5.37;;;;;;;2.19;100.00;98014.50;6217060;23;20209;-80
2023/01/19 03:33:13;;;;;;;6.03;5.43;;;;;;;2.27;100.00;98026.66;6194710;23;20210;-80
2023/01/19 03:35:48;;;;;;;5.80;5.20;;;;;;;2.12;100.00;98035.63;6160552;23;20577;-81
2023/01/19 03:38:18;;;;;;;5.47;4.97;;;;;;;2.30;100.00;98026.25;6193634;23;20237;-80
2023/01/19 03:40:46;;;;;;;5.90;5.33;;;;;;;2.22;100.00;98027.28;6195675;23;20189;-81
2023/01/19 03:43:15;;;;;;;6.67;5.23;;;;;;;2.24;100.00;98029.72;6180900;23;20208;-80
2023/01/19 03:45:43;;;;;;;5.87;5.37;;;;;;;2.11;100.00;98014.69;6179629;23;20216;-80
2023/01/19 03:48:10;;;;;;;6.37;5.77;;;;;;;2.10;100.00;98021.78;6158963;23;20655;-79
2023/01/19 03:50:37;;;;;;;6.63;5.53;;;;;;;2.07;100.00;98038.06;6193526;23;20259;-80
2023/01/19 03:53:10;;;;;;;5.97;5.37;;;;;;;2.29;100.00;98041.28;6166908;23;20256;-80
2023/01/19 03:55:39;;;;;;;5.83;5.33;;;;;;;2.21;100.00;98044.16;6191435;23;20206;-79
2023/01/19 03:58:06;;;;;;;6.63;5.37;;;;;;;2.15;100.00;98029.94;6217047;23;20237;-80
2023/01/19 04:00:35;;;;;;;5.90;5.30;;;;;;;2.16;100.00;98028.91;6193185;23;20257;-81
2023/01/19 04:03:03;;;;;;;6.33;5.73;;;;;;;2.28;100.00;98028.31;6207288;23;20206;-80
2023/01/19 04:05:32;;;;;;;5.97;5.37;;;;;;;2.18;100.00;98015.50;6183459;23;20212;-81
2023/01/19 04:07:59;;;;;;;5.90;5.40;;;;;;;2.19;100.00;98017.13;6188877;23;20210;-79
2023/01/19 04:10:26;;;;;;;6.43;5.83;;;;;;;2.11;100.00;98023.44;6189853;23;20212;-79
2023/01/19 04:12:57;;;;;;;6.57;5.97;;;;;;;2.15;100.00;98023.81;6188568;23;20686;-80
2023/01/19 04:15:24;;;;;;;6.13;5.43;;;;;;;2.18;100.00;98028.72;6190074;23;20210;-79
2023/01/19 04:17:51;;;;;;;6.87;5.93;;;;;;;2.18;100.00;98026.06;6163167;23;20214;-79
2023/01/19 04:20:18;;;;;;;6.73;6.00;;;;;;;2.11;100.00;98019.97;6189206;23;20679;-80
2023/01/19 04:22:45;;;;;;;7.40;6.20;;;;;;;2.14;100.00;98028.31;6188574;23;20560;-79
2023/01/19 04:25:12;;;;;;;6.40;5.80;;;;;;;2.23;100.00;98026.28;6190104;23;20698;-79
2023/01/19 04:27:38;;;;;;;6.83;6.13;;;;;;;2.23;100.00;98036.84;6189922;23;20202;-79
2023/01/19 04:30:06;;;;;;;6.80;6.10;;;;;;;2.23;100.00;98039.50;6187706;23;20202;-78
2023/01/19 04:32:32;;;;;;;6.70;6.10;;;;;;;2.18;100.00;98048.03;6188070;23;20670;-79
2023/01/19 04:34:59;;;;;;;6.50;5.90;;;;;;;2.22;100.00;98035.22;6188431;23;20709;-79
2023/01/19 04:37:26;;;;;;;9.43;6.43;;;;;;;2.05;100.00;98044.59;6187714;23;20206;-78
2023/01/19 04:39:53;;;;;;;6.60;6.00;;;;;;;2.01;100.00;98044.16;6210688;23;20213;-78
2023/01/19 04:42:20;;;;;;;7.13;6.10;;;;;;;2.03;100.00;98042.13;6185772;23;20226;-80
2023/01/19 04:44:47;;;;;;;6.80;6.10;;;;;;;2.01;100.00;98049.44;6187482;23;20284;-79
2023/01/19 04:47:14;;;;;;;7.17;6.20;;;;;;;1.96;100.00;98053.72;6187952;23;20276;-79
2023/01/19 04:49:40;;;;;;;8.17;6.03;;;;;;;2.04;100.00;98053.53;6187621;23;20214;-79
2023/01/19 04:52:07;;;;;;;6.83;6.13;;;;;;;1.95;100.00;98049.47;6188076;23;20210;-78
2023/01/19 04:54:34;;;;;;;6.43;5.83;;;;;;;2.08;100.00;98060.00;6187545;23;20205;-78
2023/01/19 04:57:01;;;;;;;6.83;6.23;;;;;;;2.03;100.00;98073.03;6187814;23;20202;-79
2023/01/19 04:59:27;;;;;;;7.13;6.43;;;;;;;1.91;100.00;98070.19;6186498;23;20214;-78
2023/01/19 05:01:55;;;;;;;7.07;6.37;;;;;;;2.06;100.00;98076.06;6184898;23;20213;-79
2023/01/19 05:04:23;;;;;;;8.03;7.00;;;;;;;2.13;100.00;98065.50;6185566;23;20206;-79
2023/01/19 05:06:50;;;;;;;7.47;6.47;;;;;;;2.12;100.00;98059.41;6186737;23;20210;-78
2023/01/19 05:09:17;;;;;;;6.73;6.07;;;;;;;2.06;100.00;98067.31;6186602;23;20266;-79
2023/01/19 05:11:43;;;;;;;7.03;6.33;;;;;;;2.02;100.00;98074.03;6186333;23;20217;-78
2023/01/19 05:14:10;;;;;;;8.27;6.47;;;;;;;2.18;100.00;98082.38;6186050;23;20283;-78
2023/01/19 05:16:37;;;;;;;6.90;6.20;;;;;;;2.18;100.00;98063.06;6186836;23;20276;-79
2023/01/19 05:19:03;;;;;;;7.07;6.37;;;;;;;2.05;100.00;98058.56;6187151;23;20214;-79
2023/01/19 05:21:30;;;;;;;7.87;7.07;;;;;;;2.09;100.00;98056.38;6185154;23;20281;-79
2023/01/19 05:23:57;;;;;;;7.60;6.80;;;;;;;2.08;100.00;98057.38;6187207;23;20210;-79
2023/01/19 05:26:24;;;;;;;7.33;6.60;;;;;;;2.10;100.00;98058.00;6186241;23;20202;-79
2023/01/19 05:28:50;;;;;;;6.67;5.97;;;;;;;2.14;100.00;98059.22;6186955;23;20205;-79
2023/01/19 05:31:17;;;;;;;7.67;6.77;;;;;;;2.13;100.00;98066.31;6186611;23;20201;-79
2023/01/19 05:33:45;;;;;;;7.30;6.60;;;;;;;2.06;100.00;98062.84;6186339;23;20206;-79
2023/01/19 05:36:11;;;;;;;8.00;7.20;;;;;;;1.92;100.00;98061.22;6186619;23;20281;-78
2023/01/19 05:38:38;;;;;;;7.73;6.93;;;;;;;2.12;100.00;98062.06;6186660;23;20198;-79
2023/01/19 05:41:04;;;;;;;7.97;7.17;;;;;;;2.13;100.00;98065.50;6185709;23;20679;-78
2023/01/19 05:43:31;;;;;;;8.30;7.50;;;;;;;2.07;100.00;98072.41;6184425;23;20212;-79
2023/01/19 05:45:58;;;;;;;7.40;6.70;;;;;;;2.08;100.00;98071.41;6184675;23;20206;-78
2023/01/19 05:48:24;;;;;;;8.07;7.27;;;;;;;2.05;100.00;98071.00;6186001;23;20665;-78
2023/01/19 05:50:56;;;;;;;7.60;6.90;;;;;;;2.06;100.00;98054.94;6186078;23;20537;-79
2023/01/19 05:53:23;;;;;;;7.60;6.90;;;;;;;2.10;100.00;98065.91;6183515;23;20210;-78
2023/01/19 05:55:49;;;;;;;8.73;6.97;;;;;;;2.15;100.00;98060.81;6185085;23;20726;-78
2023/01/19 05:58:16;;;;;;;8.23;7.43;;;;;;;2.18;100.00;98066.53;6171953;23;20205;-78
2023/01/19 06:00:42;;;;;;;8.27;7.43;;;;;;;2.13;100.00;98066.31;6184922;23;20659;-79
2023/01/19 06:03:09;;;;;;;8.43;6.93;;;;;;;2.08;100.00;98076.69;6183478;23;20671;-78
2023/01/19 06:05:38;;;;;;;9.17;7.93;;;;;;;2.16;100.00;98094.16;6186205;23;20221;-79
2023/01/19 06:08:05;;;;;;;8.83;7.93;;;;;;;2.17;100.00;98109.00;6185217;23;20214;-78
2023/01/19 06:10:31;;;;;;;9.97;8.90;;;;;;;2.29;100.00;98104.72;6184718;23;20208;-79
2023/01/19 06:12:58;;;;;;;9.03;8.10;;;;;;;2.22;100.00;98107.38;6182936;23;20212;-79
2023/01/19 06:15:25;;;;;;;9.40;7.93;;;;;;;2.25;100.00;98118.53;6198175;23;20539;-78
2023/01/19 06:17:52;;;;;;;10.57;8.00;;;;;;;2.10;100.00;98114.25;6185996;23;20206;-79
2023/01/19 06:20:19;;;;;;;8.60;7.70;;;;;;;2.19;100.00;98102.47;6183997;23;20213;-79
2023/01/19 06:22:46;;;;;;;9.13;7.53;;;;;;;2.17;100.00;98107.16;6185751;23;20210;-78
2023/01/19 06:25:13;;;;;;;8.63;7.73;;;;;;;2.34;100.00;98090.88;6185898;23;20221;-79
2023/01/19 06:27:43;;;;;;;9.53;8.53;;;;;;;2.35;100.00;98085.41;6186198;23;20217;-78
2023/01/19 06:30:11;;;;;;;8.97;8.07;;;;;;;2.25;100.00;98078.91;6187128;23;20574;-79
2023/01/19 06:32:38;;;;;;;8.53;7.63;;;;;;;2.29;100.00;98078.28;6187515;23;20639;-79
2023/01/19 06:35:06;;;;;;;10.03;8.43;;;;;;;2.20;100.00;98075.03;6187430;23;20248;-79
2023/01/19 06:37:33;;;;;;;8.23;7.43;;;;;;;2.29;100.00;98074.88;6187975;23;20190;-79
2023/01/19 06:40:00;;;;;;;9.97;7.83;;;;;;;2.33;100.00;98068.16;6187045;23;20670;-79
2023/01/19 06:42:27;;;;;;;10.77;8.37;;;;;;;2.26;100.00;98069.97;6157014;23;20203;-79
2023/01/19 06:44:53;;;;;;;9.20;8.10;;;;;;;2.22;100.00;98059.00;6155826;23;20716;-79
2023/01/19 06:47:20;;;;;;;9.50;8.30;;;;;;;2.15;100.00;98066.91;6157202;23;20206;-81
2023/01/19 06:49:47;;;;;;;10.40;8.87;;;;;;;2.20;100.00;98080.34;6155524;23;20718;-79
2023/01/19 06:52:16;;;;;;;10.50;8.70;;;;;;;2.04;100.00;98086.03;6156707;23;20218;-79
2023/01/19 06:54:43;;;;;;;10.53;9.30;;;;;;;2.11;100.00;98123.00;6157857;23;20214;-80
2023/01/19 06:57:12;;;;;;;9.83;8.83;;;;;;;2.16;100.00;98147.00;6215294;23;20236;-79
2023/01/19 06:59:38;;;;;;;10.40;9.30;;;;;;;2.23;100.00;98142.53;6217331;23;20220;-79
2023/01/19 07:02:05;;;;;;;10.70;9.13;;;;;;;2.16;100.00;98129.31;6217085;23;20209;-78
2023/01/19 07:04:51;;;;;;;9.63;8.47;;;;;;;2.19;100.00;98131.53;6217528;23;20231;-79
2023/01/19 07:07:18;;;;;;;12.17;9.80;;;;;;;2.32;100.00;98143.97;6216777;23;20241;-79
2023/01/19 07:09:45;;;;;;;10.40;8.90;;;;;;;2.18;100.00;98144.97;6217008;23;20608;-80
2023/01/19 07:12:13;;;;;;;11.53;9.53;;;;;;;2.19;100.00;98144.75;6173970;23;20263;-80
2023/01/19 07:14:40;;;;;;;11.53;10.33;;;;;;;2.20;100.00;98162.25;6229299;23;20217;-80
2023/01/19 07:17:07;;;;;;;10.37;9.30;;;;;;;2.27;100.00;98153.53;6232360;23;20259;-80
2023/01/19 07:19:34;;;;;;;10.33;9.23;;;;;;;2.24;100.00;98130.94;6238017;23;20240;-81
2023/01/19 07:22:02;;;;;;;10.77;9.27;;;;;;;2.26;100.00;98134.19;6211449;23;20209;-79
2023/01/19 07:24:33;;;;;;;11.77;10.27;;;;;;;2.16;100.00;98155.75;6211699;23;20642;-80
2023/01/19 07:26:59;;;;;;;10.67;9.47;;;;;;;2.15;100.00;98151.47;6211602;23;20216;-81
2023/01/19 07:29:26;;;;;;;10.50;9.40;;;;;;;2.29;100.00;98135.66;6211293;23;20225;-81
2023/01/19 07:31:53;;;;;;;10.30;9.07;;;;;;;2.27;100.00;98138.47;6186389;23;20209;-82
2023/01/19 07:34:20;;;;;;;8.57;7.67;;;;;;;2.10;100.00;98135.41;6209835;23;20244;-81
2023/01/19 07:36:47;;;;;;;10.33;8.80;;;;;;;2.21;100.00;98126.06;6210155;23;20209;-80
2023/01/19 07:39:14;;;;;;;8.97;8.07;;;;;;;2.44;100.00;98115.09;6211035;23;20197;-81
2023/01/19 07:41:41;;;;;;;17.77;12.10;;;;;;;2.21;100.00;98116.31;6209803;23;20269;-82
2023/01/19 07:44:08;;;;;;;8.63;7.73;;;;;;;2.28;100.00;98126.09;6207987;23;20225;-80
2023/01/19 07:46:35;;;;;;;9.07;8.17;;;;;;;2.38;100.00;98127.28;6186157;23;20209;-80
2023/01/19 07:49:01;;;;;;;8.73;7.83;;;;;;;2.31;100.00;98137.06;6233672;23;20205;-81
2023/01/19 07:51:28;;;;;;;8.83;7.90;;;;;;;2.33;100.00;98140.31;6232773;23;20280;-81
2023/01/19 07:53:56;;;;;;;9.53;8.30;;;;;;;2.41;100.00;98145.41;6208513;23;20217;-81
2023/01/19 07:56:26;;;;;;;9.43;8.00;;;;;;;2.43;100.00;98158.38;6189284;23;20206;-81
2023/01/19 07:58:53;;;;;;;8.77;7.87;;;;;;;2.44;100.00;98152.09;6155180;23;20285;-81
2023/01/19 08:01:21;;;;;;;9.20;8.20;;;;;;;2.36;100.00;98163.69;6202385;23;20214;-80
2023/01/19 08:03:48;;;;;;;8.93;8.03;;;;;;;2.53;100.00;98172.03;6206199;23;20209;-81
2023/01/19 08:06:19;;;;;;;9.50;8.20;;;;;;;2.58;100.00;98169.59;6207200;23;20682;-80
2023/01/19 08:08:46;;;;;;;9.50;8.10;;;;;;;2.55;100.00;98183.22;6159036;23;20678;-81
2023/01/19 08:11:14;;;;;;;9.63;8.50;;;;;;;2.46;100.00;98184.44;6208453;23;20214;-81
2023/01/19 08:13:42;;;;;;;11.57;10.03;;;;;;;2.46;100.00;98195.84;6207901;23;20189;-81
2023/01/19 08:16:10;;;;;;;10.67;9.07;;;;;;;2.57;100.00;98200.50;6182561;23;20206;-81
2023/01/19 08:18:38;;;;;;;10.07;8.70;;;;;;;2.74;100.00;98197.44;6209494;23;20202;-81
2023/01/19 08:21:06;;;;;;;10.23;9.03;;;;;;;2.62;100.00;98179.53;6208886;23;20233;-81
2023/01/19 08:23:36;;;;;;;11.30;9.73;;;;;;;2.74;100.00;98177.13;6183641;23;20217;-80
2023/01/19 08:26:19;;;;;;;15.83;9.07;;;;;;;2.77;100.00;98173.22;6206064;23;20210;-80
2023/01/19 08:28:46;;;;;;;9.87;8.30;;;;;;;2.73;100.00;98169.38;6206606;23;20222;-80
2023/01/19 08:31:13;;;;;;;10.70;9.57;;;;;;;2.74;100.00;98182.41;6197507;23;20202;-81
2023/01/19 08:33:48;;;;;;;11.73;8.73;;;;;;;2.81;100.00;98180.56;6197557;23;20210;-80
2023/01/19 08:36:15;;;;;;;12.00;9.53;;;;;;;2.74;100.00;98173.66;6197781;23;20214;-80
2023/01/19 08:38:44;;;;;;;10.20;8.13;;;;;;;2.84;100.00;98177.50;6195835;23;20206;-80
2023/01/19 08:41:11;;;;;;;11.53;10.00;;;;;;;2.66;100.00;98174.66;6195636;23;20216;-80
2023/01/19 08:43:38;;;;;;;11.53;9.60;;;;;;;2.67;100.00;98178.94;6195247;23;20210;-80
2023/01/19 08:46:05;;;;;;;11.53;10.23;;;;;;;2.62;100.00;98187.47;6169895;23;20210;-80
2023/01/19 08:48:32;;;;;;;12.13;9.27;;;;;;;2.82;100.00;98187.47;6196938;23;20207;-80
2023/01/19 08:50:59;;;;;;;10.57;8.60;;;;;;;2.90;100.00;98197.84;6195794;23;20209;-81
2023/01/19 08:53:26;;;;;;;10.27;9.17;;;;;;;2.99;100.00;98198.44;6194789;23;20214;-80
2023/01/19 08:55:58;;;;;;;11.57;9.47;;;;;;;2.95;100.00;98200.69;6181978;23;20311;-80
2023/01/19 08:58:25;;;;;;;11.80;10.03;;;;;;;2.96;100.00;98206.78;6224288;23;20228;-80
2023/01/19 09:00:52;;;;;;;11.83;9.47;;;;;;;3.07;100.00;98208.81;6225106;23;20237;-80
2023/01/19 09:03:22;;;;;;;10.20;8.57;;;;;;;3.03;100.00;98212.91;6225628;23;20259;-81
2023/01/19 09:05:49;;;;;;;10.30;9.30;;;;;;;3.11;100.00;98204.75;6217737;23;20204;-80
2023/01/19 09:08:16;;;;;;;9.17;8.10;;;;;;;3.23;100.00;98189.03;6200443;23;20248;-80
2023/01/19 09:10:48;;;;;;;9.50;8.23;;;;;;;3.29;100.00;98204.09;6225393;23;20229;-80
2023/01/19 09:13:17;;;;;;;9.63;8.30;;;;;;;3.22;100.00;98209.38;6201594;23;20209;-81
2023/01/19 09:21:49;;;;;;;9.67;7.87;;;;;;;3.25;100.00;98218.75;6251994;22;20211;-78
2023/01/19 09:24:16;;;;;;;8.47;7.57;;;;;;;3.27;100.00;98206.09;6191668;23;20655;-78
2023/01/19 09:26:43;;;;;;;8.77;7.77;;;;;;;3.49;100.00;98215.44;6218225;23;20202;-78
2023/01/19 09:29:09;;;;;;;7.93;7.20;;;;;;;3.37;100.00;98217.09;6219749;23;20213;-78
2023/01/19 09:31:36;;;;;;;8.57;7.63;;;;;;;3.45;100.00;98219.53;6217790;23;20225;-79
2023/01/19 09:37:06;;;;;;;9.63;7.70;;;;;;;3.34;100.00;98226.28;6224523;23;20266;-77
2023/01/19 09:39:33;;;;;;;7.73;7.03;;;;;;;3.37;100.00;98217.91;6169461;23;20288;-78
2023/01/19 09:42:23;;;;;;;8.00;7.20;;;;;;;3.29;100.00;98223.44;6189359;23;20208;-78
2023/01/19 09:44:52;;;;;;;8.63;7.73;;;;;;;3.47;100.00;98225.41;6183119;23;20210;-78
2023/01/19 09:47:21;;;;;;;7.93;7.13;;;;;;;3.32;100.00;98225.66;6188365;23;20206;-78
2023/01/19 09:49:57;;;;;;;8.63;7.73;;;;;;;3.44;100.00;98224.00;6201367;23;20237;-79
2023/01/19 09:52:24;;;;;;;9.20;7.70;;;;;;;3.45;100.00;98233.56;6161848;23;20198;-78
2023/01/19 09:54:54;;;;;;;9.90;7.80;;;;;;;3.50;100.00;98223.16;6202901;23;20213;-80
2023/01/19 09:57:23;;;;;;;8.60;7.43;;;;;;;3.64;100.00;98233.72;6159214;23;20209;-79
2023/01/19 09:59:50;;;;;;;9.00;8.10;;;;;;;3.58;100.00;98226.63;6195141;23;20205;-79
2023/01/19 10:02:25;;;;;;;10.70;9.00;;;;;;;3.80;100.00;98223.47;6165249;23;20209;-79
2023/01/19 10:05:11;;;;;;;8.40;7.60;;;;;;;3.75;100.00;98222.47;6193892;23;20209;-80
2023/01/19 10:08:02;;;;;;;13.77;12.30;;;;;;;3.52;100.00;98213.19;6203651;23;20210;-78
2023/01/19 10:10:36;;;;;;;9.63;7.57;;;;;;;3.46;100.00;98213.19;6217786;23;20643;-78
2023/01/19 10:13:16;;;;;;;7.67;6.70;;;;;;;3.58;100.00;98216.84;6169682;23;20833;-79
2023/01/19 10:16:06;;;;;;;9.10;7.90;;;;;;;3.58;100.00;98214.19;6178932;23;20213;-79
2023/01/19 10:18:47;;;;;;;8.57;7.67;;;;;;;3.85;100.00;98215.69;6200491;23;20209;-79
2023/01/19 10:21:37;;;;;;;7.10;6.40;;;;;;;3.82;100.00;98210.84;6202211;23;20661;-78
2023/01/19 10:24:42;;;;;;;8.03;7.07;;;;;;;3.94;100.00;98205.66;6194692;23;20209;-79
2023/01/19 10:27:17;;;;;;;7.27;6.37;;;;;;;4.00;100.00;98212.78;6188773;23;20208;-78
2023/01/19 10:29:44;;;;;;;7.33;6.30;;;;;;;3.92;100.00;98207.69;6224417;23;20209;-79
2023/01/19 10:32:11;;;;;;;7.13;6.43;;;;;;;3.99;100.00;98206.66;6201666;23;20257;-79
2023/01/19 10:34:39;;;;;;;6.17;5.50;;;;;;;3.94;100.00;98218.91;6227661;23;20229;-80
2023/01/19 10:37:29;;;;;;;6.57;5.90;;;;;;;4.14;100.00;98214.34;6204570;23;20549;-82
2023/01/19 11:01:23;;;;;;;4.80;4.40;;;;;;;4.06;100.00;98241.06;6230507;22;20214;-78
2023/01/19 11:03:52;;;;;;;5.10;4.60;;;;;;;4.03;100.00;98222.94;6161577;23;20218;-80
2023/01/19 11:06:29;;;;;;;4.97;4.10;;;;;;;3.84;100.00;98237.09;6158105;23;20206;-81
2023/01/19 11:09:17;;;;;;;5.10;4.60;;;;;;;3.93;100.00;98230.53;6158438;23;20167;-81
2023/01/19 11:11:51;;;;;;;5.23;4.67;;;;;;;3.93;100.00;98234.00;6131156;23;20266;-81
2023/01/19 11:14:23;;;;;;;5.27;4.77;;;;;;;3.98;100.00;98233.38;6140158;23;20230;-80
2023/01/19 11:16:53;;;;;;;5.07;4.37;;;;;;;3.85;100.00;98247.50;6138684;23;20214;-81
2023/01/19 11:19:28;;;;;;;5.90;5.40;;;;;;;3.96;100.00;98238.91;6184430;23;20258;-81
2023/01/19 11:22:10;;;;;;;6.30;5.70;;;;;;;4.03;100.00;98238.84;6186334;23;20245;-81
2023/01/19 11:24:38;;;;;;;5.60;5.00;;;;;;;4.08;100.00;98238.22;6160294;23;20213;-81
2023/01/19 11:27:07;;;;;;;5.90;5.40;;;;;;;3.96;100.00;98244.19;6182166;23;20207;-82
2023/01/19 11:29:38;;;;;;;5.50;5.00;;;;;;;4.05;100.00;98250.06;6175824;23;20210;-81
2023/01/19 11:32:21;;;;;;;5.83;5.33;;;;;;;4.01;100.00;98248.88;6159790;23;20220;-81
2023/01/19 11:34:49;;;;;;;5.70;4.57;;;;;;;4.00;100.00;98255.19;6210013;23;20217;-81
2023/01/19 11:37:19;;;;;;;4.43;3.93;;;;;;;3.89;100.00;98239.94;6145211;23;20210;-81
2023/01/19 11:39:48;;;;;;;5.70;5.20;;;;;;;3.90;100.00;98241.56;6192796;23;20229;-81
2023/01/19 11:42:17;;;;;;;3.30;3.00;;;;;;;3.84;99.04;98239.75;6208832;23;20701;-81
2023/01/19 11:44:56;;;;;;;3.60;3.30;;;;;;;3.90;100.00;98245.03;6237840;23;20227;-81
2023/01/19 11:47:51;;;;;;;3.73;3.17;;;;;;;3.99;100.00;98253.56;6239244;23;20245;-81
2023/01/19 11:50:34;;;;;;;3.87;3.47;;;;;;;4.03;100.00;98244.16;6146886;23;20220;-81
2023/01/19 11:53:08;;;;;;;3.77;2.73;;;;;;;3.79;100.00;98243.03;6219345;23;20204;-81
2023/01/19 11:55:52;;;;;;;3.17;2.60;;;;;;;3.83;100.00;98260.13;6189578;23;20208;-81
2023/01/19 11:58:20;;;;;;;3.20;2.90;;;;;;;3.53;97.64;98245.78;6211037;23;20209;-81
2023/01/19 12:00:49;;;;;;;2.63;2.43;;;;;;;3.58;97.82;98239.84;6188278;23;20236;-80
2023/01/19 12:03:34;;;;;;;2.80;2.47;;;;;;;3.49;97.04;98244.56;6238441;23;20209;-81
2023/01/19 12:06:28;;;;;;;3.67;2.60;;;;;;;3.31;97.84;98250.50;6201663;23;20276;-80
2023/01/19 12:09:35;;;;;;;2.60;2.40;;;;;;;3.25;95.77;98246.03;6207711;23;20197;-80
2023/01/19 12:12:04;;;;;;;3.23;2.73;;;;;;;3.16;96.11;98239.34;6157810;23;20206;-79
2023/01/19 12:15:08;;;;;;;3.23;2.73;;;;;;;3.18;97.38;98244.41;6184123;23;20268;-80
2023/01/19 12:17:44;;;;;;;3.97;2.80;;;;;;;3.19;97.36;98238.09;6183246;23;20210;-82
2023/01/19 12:20:20;;;;;;;3.00;2.53;;;;;;;3.17;96.90;98248.91;6157667;23;20189;-81
2023/01/19 12:23:06;;;;;;;3.57;2.90;;;;;;;3.12;98.07;98243.41;6209613;23;20202;-81
2023/01/19 12:25:48;;;;;;;3.83;3.20;;;;;;;3.27;98.76;98249.28;6182423;23;20206;-81
2023/01/19 12:28:16;;;;;;;3.43;3.13;;;;;;;3.15;100.00;98236.88;6156614;23;20301;-81
2023/01/19 12:30:48;;;;;;;4.10;3.70;;;;;;;3.05;100.00;98253.19;6208425;23;20217;-81
2023/01/19 12:33:38;;;;;;;4.47;4.07;;;;;;;3.07;100.00;98257.28;6184151;23;20206;-81
2023/01/19 12:36:10;;;;;;;5.17;4.67;;;;;;;3.16;100.00;98254.41;6205511;23;20206;-81
2023/01/19 12:38:49;;;;;;;6.90;5.93;;;;;;;3.00;100.00;98255.63;6207579;23;20202;-81
2023/01/19 12:41:17;;;;;;;7.03;6.00;;;;;;;2.98;100.00;98257.69;6206934;23;20569;-81